CheckWX is a tool to help pilots better visualize weather data.  It is not intended as a substitute for an official pre-flight weather briefing.

10:27:17 UTC

CYYY METAR
Mont Joli Airport
Mont-Joli, Canada
Current

27 mins ago

CYYY 261000Z 29018G25KT 30SM BKN040 M13/M21 A3011 RMK SC5 SLP203
Observed
Mar-26 @ 10:00 UTC
Wind
  • 290° at 18 KTS
  • Gusting to 25 KTS
Visibility
30 SM
Flight Rules
VFR
Cloud Levels
  • Broken at 4,000' AGL
Temperature
-13°C / 9°F
Dewpoint
-21°C / -6°F
Humidity
51%
Altimeter
30.11" Hg
Pressure
1020.3 hPa
Previous

1 hour ago

CYYY 260900Z 30020G27KT 30SM SCT040 M13/M21 A3008 RMK SC4 SLP192
Observed
Mar-26 @ 09:00 UTC
Wind
  • 300° at 20 KTS
  • Gusting to 27 KTS
Visibility
30 SM
Flight Rules
VFR
Cloud Levels
  • Scattered at 4,000' AGL
Temperature
-13°C / 9°F
Dewpoint
-21°C / -6°F
Humidity
51%
Altimeter
30.08" Hg
Pressure
1019.2 hPa
Previous

2 hours ago

CYYY 260800Z 29021G29KT 30SM SCT040 M12/M21 A3006 RMK SC4 SLP186
Observed
Mar-26 @ 08:00 UTC
Wind
  • 290° at 21 KTS
  • Gusting to 29 KTS
Visibility
30 SM
Flight Rules
VFR
Cloud Levels
  • Scattered at 4,000' AGL
Temperature
-12°C / 10°F
Dewpoint
-21°C / -6°F
Humidity
47%
Altimeter
30.06" Hg
Pressure
1018.6 hPa